Time;durP1;ratioP1;P1;durP2;ratioP2;P2;SDS_P1;SDS_P2;PMS_P1;PMS_P2;Temp;Humidity;BMP_temperature;BMP_pressure;BME280_temperature;BME280_humidity;BME280_pressure;Samples;Min_cycle;Max_cycle;Signal;HPM_P1;HPM_P2
2021/07/25 00:01:51;;;;;;;15.23;13.50;;;19.20;99.90;;;;;;5029946;28;20633;-91
2021/07/25 00:04:20;;;;;;;11.33;10.13;;;19.20;99.90;;;;;;5017779;28;20627;-90
2021/07/25 00:06:47;;;;;;;11.50;10.37;;;19.10;99.90;;;;;;5026925;28;20744;-91
2021/07/25 00:09:14;;;;;;;11.97;10.77;;;19.10;99.90;;;;;;5019142;28;20629;-90
2021/07/25 00:11:41;;;;;;;12.50;9.93;;;19.20;99.90;;;;;;5017671;28;20736;-90
2021/07/25 00:14:08;;;;;;;11.00;9.77;;;19.20;99.90;;;;;;5026959;28;20669;-92
2021/07/25 00:16:35;;;;;;;12.20;10.03;;;19.20;99.90;;;;;;5017361;28;20655;-91
2021/07/25 00:19:02;;;;;;;12.20;10.33;;;19.20;99.90;;;;;;5027178;28;21211;-91
2021/07/25 00:21:31;;;;;;;11.47;10.40;;;19.20;99.90;;;;;;5028010;28;20653;-92
2021/07/25 00:24:02;;;;;;;11.53;10.43;;;19.10;99.90;;;;;;5013328;28;21207;-92
2021/07/25 00:26:37;;;;;;;11.90;10.60;;;19.00;99.90;;;;;;5020459;28;21112;-92
2021/07/25 00:29:05;;;;;;;12.50;11.40;;;19.00;99.90;;;;;;5024182;28;20634;-91
2021/07/25 00:31:35;;;;;;;11.63;10.53;;;19.00;99.90;;;;;;5011510;28;20727;-91
2021/07/25 00:34:03;;;;;;;12.03;10.73;;;19.00;99.90;;;;;;5029473;28;20670;-91
2021/07/25 00:36:32;;;;;;;12.33;10.23;;;18.90;99.90;;;;;;5027994;28;21194;-91
2021/07/25 00:39:01;;;;;;;11.97;10.87;;;18.80;99.90;;;;;;5018911;28;20638;-92
2021/07/25 00:41:29;;;;;;;13.93;11.43;;;18.80;99.90;;;;;;5016623;28;20675;-92
2021/07/25 00:44:00;;;;;;;13.07;10.70;;;18.80;99.90;;;;;;5017090;28;20709;-91
2021/07/25 00:46:31;;;;;;;14.30;10.83;;;18.80;99.90;;;;;;5031398;28;20650;-91
2021/07/25 00:49:20;;;;;;;12.30;11.07;;;18.90;99.90;;;;;;5012740;28;21207;-91
2021/07/25 00:51:49;;;;;;;13.20;11.90;;;18.90;99.90;;;;;;5019076;28;21291;-90
2021/07/25 00:54:17;;;;;;;12.20;10.90;;;18.90;99.90;;;;;;5017987;28;20755;-90
2021/07/25 00:56:45;;;;;;;15.47;11.37;;;19.00;99.90;;;;;;5012877;28;20660;-89
2021/07/25 00:59:13;;;;;;;12.90;11.80;;;19.00;99.90;;;;;;5030543;28;20642;-92
2021/07/25 01:01:40;;;;;;;12.83;11.10;;;18.90;99.90;;;;;;5018329;28;20719;-90
2021/07/25 01:04:26;;;;;;;12.30;11.17;;;19.00;99.90;;;;;;5012258;28;20995;-90
2021/07/25 01:07:06;;;;;;;12.53;11.30;;;19.10;99.90;;;;;;5027583;28;20662;-91
2021/07/25 01:09:43;;;;;;;12.87;11.67;;;18.90;99.90;;;;;;5010370;28;21018;-90
2021/07/25 01:12:18;;;;;;;12.27;10.97;;;19.00;99.90;;;;;;5016327;28;21357;-91
2021/07/25 01:14:48;;;;;;;12.83;11.53;;;19.10;99.90;;;;;;5024875;28;20660;-91
2021/07/25 01:17:30;;;;;;;13.63;11.73;;;19.10;99.90;;;;;;5026906;28;21035;-91
2021/07/25 01:20:03;;;;;;;12.33;10.60;;;19.00;99.90;;;;;;5025840;28;20630;-90
2021/07/25 01:22:36;;;;;;;11.20;9.93;;;19.00;99.90;;;;;;5025173;28;20651;-90
2021/07/25 01:25:09;;;;;;;13.80;11.90;;;19.00;99.90;;;;;;5030153;28;20622;-91
2021/07/25 01:27:44;;;;;;;13.33;12.07;;;19.00;99.90;;;;;;5029819;28;20623;-90
2021/07/25 01:30:15;;;;;;;13.07;10.33;;;19.10;99.90;;;;;;5029731;28;20634;-91
2021/07/25 01:32:45;;;;;;;12.73;11.10;;;19.10;99.90;;;;;;5016620;28;21516;-90
2021/07/25 01:35:16;;;;;;;12.07;10.87;;;19.00;99.90;;;;;;5011493;28;20659;-91
2021/07/25 01:37:45;;;;;;;12.37;11.10;;;19.00;99.90;;;;;;5017042;28;21329;-90
2021/07/25 01:40:20;;;;;;;14.20;10.80;;;18.80;99.90;;;;;;5016159;28;20645;-90
2021/07/25 01:42:50;;;;;;;14.30;11.20;;;18.80;99.90;;;;;;5050124;28;20627;-92
2021/07/25 01:45:19;;;;;;;12.33;10.03;;;18.70;99.90;;;;;;5032890;28;20626;-91
2021/07/25 01:47:48;;;;;;;13.10;11.80;;;18.60;99.90;;;;;;5044100;28;20640;-90
2021/07/25 01:50:18;;;;;;;16.87;12.17;;;18.70;99.90;;;;;;5032751;28;20630;-91
2021/07/25 01:52:48;;;;;;;19.63;12.27;;;18.80;99.90;;;;;;5033584;28;20629;-91
2021/07/25 01:55:17;;;;;;;11.30;10.30;;;18.90;99.90;;;;;;5033302;28;20774;-90
2021/07/25 01:57:46;;;;;;;13.60;12.20;;;18.80;99.90;;;;;;5046238;28;20622;-91
2021/07/25 02:00:15;;;;;;;12.60;11.10;;;18.60;99.90;;;;;;5040081;28;21269;-91
2021/07/25 02:02:43;;;;;;;12.23;11.03;;;18.70;99.90;;;;;;5050270;28;20628;-91
2021/07/25 02:05:12;;;;;;;11.73;10.57;;;18.60;99.90;;;;;;5044825;28;20629;-92
2021/07/25 02:07:42;;;;;;;14.90;12.20;;;18.50;99.90;;;;;;5044751;28;20637;-91
2021/07/25 02:10:10;;;;;;;12.63;11.33;;;18.50;99.90;;;;;;5039995;28;20636;-90
2021/07/25 02:12:39;;;;;;;13.40;11.40;;;18.50;99.90;;;;;;5050250;28;20623;-91
2021/07/25 02:15:10;;;;;;;14.70;10.30;;;18.50;99.90;;;;;;5043127;28;20998;-90
2021/07/25 02:17:39;;;;;;;12.93;11.63;;;18.50;99.90;;;;;;5033354;28;20619;-90
2021/07/25 02:20:08;;;;;;;12.13;10.93;;;18.50;99.90;;;;;;5043733;28;21194;-91
2021/07/25 02:22:44;;;;;;;17.53;11.83;;;18.50;99.90;;;;;;5052540;28;20728;-91
2021/07/25 02:25:13;;;;;;;11.80;10.63;;;18.50;99.90;;;;;;5037047;28;20630;-91
2021/07/25 02:27:42;;;;;;;15.30;13.50;;;18.50;99.90;;;;;;5038003;28;20634;-90
2021/07/25 02:30:11;;;;;;;15.87;12.93;;;18.50;99.90;;;;;;5030808;28;20732;-91
2021/07/25 02:32:39;;;;;;;14.20;12.70;;;18.50;99.90;;;;;;5032895;28;20621;-91
2021/07/25 02:35:07;;;;;;;13.43;12.10;;;18.40;99.90;;;;;;5032661;28;20652;-92
2021/07/25 02:37:35;;;;;;;13.47;12.07;;;18.50;99.90;;;;;;5033341;28;20618;-91
2021/07/25 02:40:04;;;;;;;13.83;12.43;;;18.50;99.90;;;;;;5034893;28;21347;-91
2021/07/25 02:42:32;;;;;;;12.20;10.93;;;18.50;99.90;;;;;;5051890;28;20633;-91
2021/07/25 02:44:59;;;;;;;13.70;10.63;;;18.50;99.90;;;;;;5036103;28;20647;-91
2021/07/25 02:47:26;;;;;;;14.77;12.40;;;18.50;99.90;;;;;;5032959;28;20612;-91
2021/07/25 02:49:53;;;;;;;14.20;11.80;;;18.60;99.90;;;;;;5046605;28;20609;-91
2021/07/25 02:52:20;;;;;;;13.53;12.07;;;18.50;99.90;;;;;;5046257;28;20736;-91
2021/07/25 02:54:47;;;;;;;13.23;11.70;;;18.60;99.90;;;;;;5033385;28;21280;-91
2021/07/25 02:57:15;;;;;;;14.83;12.80;;;18.60;99.90;;;;;;5026864;28;20651;-91
2021/07/25 02:59:43;;;;;;;13.63;11.80;;;18.50;99.90;;;;;;5032395;28;20639;-91
2021/07/25 03:02:10;;;;;;;14.80;13.30;;;18.50;99.90;;;;;;5031830;28;20625;-91
2021/07/25 03:04:41;;;;;;;15.30;13.83;;;18.50;99.90;;;;;;5041011;28;20648;-91
2021/07/25 03:07:10;;;;;;;14.90;13.50;;;18.50;99.90;;;;;;5052385;28;21066;-90
2021/07/25 03:09:37;;;;;;;13.63;12.00;;;18.60;99.90;;;;;;5051032;28;20632;-90
2021/07/25 03:12:05;;;;;;;14.83;12.73;;;18.60;99.90;;;;;;5037501;28;20630;-90
2021/07/25 03:14:34;;;;;;;13.03;11.57;;;18.60;99.90;;;;;;5031793;28;21285;-91
2021/07/25 03:17:02;;;;;;;16.00;13.47;;;18.60;99.90;;;;;;5036725;28;20654;-91
2021/07/25 03:19:29;;;;;;;14.77;12.00;;;18.50;99.90;;;;;;5051740;28;20998;-91
2021/07/25 03:21:57;;;;;;;12.80;11.60;;;18.50;99.90;;;;;;5051034;28;20675;-91
2021/07/25 03:24:25;;;;;;;12.83;11.60;;;18.50;99.90;;;;;;5050772;28;20637;-91
2021/07/25 03:26:54;;;;;;;13.73;12.33;;;18.50;99.90;;;;;;5049191;28;20639;-91
2021/07/25 03:29:22;;;;;;;11.90;10.67;;;18.50;99.90;;;;;;5051983;28;20641;-91
2021/07/25 03:31:52;;;;;;;12.50;10.30;;;18.40;99.90;;;;;;5032761;28;20697;-91
2021/07/25 03:34:22;;;;;;;13.17;11.00;;;18.30;99.90;;;;;;5032791;28;20661;-91
2021/07/25 03:36:52;;;;;;;12.23;11.07;;;18.40;99.90;;;;;;5032180;28;20665;-92
2021/07/25 03:39:21;;;;;;;16.67;12.00;;;18.40;99.90;;;;;;5041223;28;20657;-92
2021/07/25 03:41:50;;;;;;;12.43;10.57;;;18.50;99.90;;;;;;5031013;28;20735;-92
2021/07/25 03:44:18;;;;;;;13.10;10.73;;;18.50;99.90;;;;;;5048101;28;20970;-91
2021/07/25 03:46:46;;;;;;;12.67;11.37;;;18.50;99.90;;;;;;5038664;28;20650;-91
2021/07/25 03:49:16;;;;;;;12.50;11.30;;;18.50;99.90;;;;;;5034161;28;20618;-92
2021/07/25 03:51:45;;;;;;;10.60;9.70;;;18.50;99.90;;;;;;5050804;28;20637;-92
2021/07/25 03:54:16;;;;;;;11.97;10.77;;;18.30;99.90;;;;;;5035887;28;20624;-91
2021/07/25 03:56:44;;;;;;;10.23;9.20;;;18.20;99.90;;;;;;5039764;28;20734;-92
2021/07/25 03:59:13;;;;;;;14.57;10.90;;;18.20;99.90;;;;;;5051185;28;20656;-91
2021/07/25 04:01:41;;;;;;;11.00;10.00;;;18.20;99.90;;;;;;5043392;28;20669;-91
2021/07/25 04:04:09;;;;;;;12.70;11.40;;;18.30;99.90;;;;;;5031014;28;21027;-91
2021/07/25 04:06:39;;;;;;;13.17;11.03;;;18.30;99.90;;;;;;5042706;28;20624;-91
2021/07/25 04:09:08;;;;;;;12.37;11.17;;;18.30;99.90;;;;;;5044168;28;20626;-91
2021/07/25 04:17:40;;;;;;;15.93;11.40;;;18.40;99.90;;;;;;5048086;28;21212;-91
2021/07/25 04:20:11;;;;;;;11.30;9.73;;;18.40;99.90;;;;;;5050048;28;20684;-92
2021/07/25 04:22:54;;;;;;;11.17;10.03;;;18.40;99.90;;;;;;5042017;28;20623;-91
2021/07/25 04:25:23;;;;;;;12.30;10.50;;;18.40;99.90;;;;;;5036384;28;20622;-91
2021/07/25 04:27:56;;;;;;;11.03;9.90;;;18.40;99.90;;;;;;5035303;28;20625;-91
2021/07/25 04:30:27;;;;;;;9.07;8.23;;;18.30;99.90;;;;;;5046232;28;20661;-92
2021/07/25 04:32:56;;;;;;;12.00;9.50;;;18.30;99.90;;;;;;5033080;28;20985;-91
2021/07/25 04:35:26;;;;;;;12.10;10.10;;;18.40;99.90;;;;;;5039197;28;20649;-91
2021/07/25 04:37:59;;;;;;;10.47;9.50;;;18.50;99.90;;;;;;5048297;28;20672;-91
2021/07/25 04:40:28;;;;;;;11.50;10.30;;;18.50;99.90;;;;;;5036631;28;21044;-91
2021/07/25 04:42:58;;;;;;;12.33;11.20;;;18.50;99.90;;;;;;5035193;28;20634;-89
2021/07/25 04:45:32;;;;;;;12.37;11.17;;;18.50;99.90;;;;;;5041754;28;20653;-91
2021/07/25 04:48:35;;;;;;;13.17;11.90;;;18.50;99.90;;;;;;5050080;28;20741;-92
2021/07/25 04:51:10;;;;;;;13.10;11.80;;;18.40;99.90;;;;;;5016546;28;20652;-91
2021/07/25 04:53:50;;;;;;;14.50;13.10;;;18.50;99.90;;;;;;5039741;28;21086;-91
2021/07/25 04:56:26;;;;;;;15.63;13.00;;;18.50;99.90;;;;;;5047645;28;20685;-91
2021/07/25 04:59:16;;;;;;;15.63;14.03;;;18.60;99.90;;;;;;5030579;28;21170;-90
2021/07/25 05:01:59;;;;;;;16.13;14.07;;;18.60;99.90;;;;;;5015853;28;20639;-91
2021/07/25 05:04:39;;;;;;;15.30;13.80;;;18.60;99.90;;;;;;5040783;28;20639;-90
2021/07/25 05:10:06;;;;;;;16.37;14.83;;;18.60;99.90;;;;;;5029553;28;20755;-90
2021/07/25 05:12:39;;;;;;;15.70;14.27;;;18.50;99.90;;;;;;5026788;28;20639;-90
2021/07/25 05:15:12;;;;;;;16.33;14.60;;;18.40;99.90;;;;;;5012631;28;20655;-91
2021/07/25 05:17:44;;;;;;;15.27;13.70;;;18.50;99.90;;;;;;5033806;28;20626;-91
2021/07/25 05:20:16;;;;;;;13.73;12.50;;;18.50;99.90;;;;;;5047063;28;20737;-91
2021/07/25 05:22:52;;;;;;;9.03;8.10;;;18.50;99.90;;;;;;5034569;28;20659;-90
2021/07/25 05:25:25;;;;;;;9.50;8.60;;;18.50;99.90;;;;;;5029173;28;21062;-90
2021/07/25 05:27:54;;;;;;;9.50;8.70;;;18.50;99.90;;;;;;5033914;28;20630;-90
2021/07/25 05:30:25;;;;;;;8.90;8.00;;;18.60;99.90;;;;;;5034319;28;20732;-90
2021/07/25 05:32:55;;;;;;;8.30;7.60;;;18.60;99.90;;;;;;5033161;28;20659;-90
2021/07/25 05:35:28;;;;;;;9.13;8.33;;;18.60;99.90;;;;;;5033210;28;20737;-90
2021/07/25 05:37:58;;;;;;;9.50;8.70;;;18.80;99.90;;;;;;5031896;28;20622;-90
2021/07/25 05:40:37;;;;;;;9.87;8.87;;;18.80;99.90;;;;;;5035791;28;20712;-91
2021/07/25 05:43:05;;;;;;;11.20;9.47;;;18.80;99.90;;;;;;5033168;28;20629;-90
2021/07/25 05:45:33;;;;;;;11.00;8.90;;;18.80;99.90;;;;;;5047556;28;20626;-91
2021/07/25 05:48:01;;;;;;;11.17;10.00;;;18.90;99.90;;;;;;5044116;28;20630;-91
2021/07/25 05:50:29;;;;;;;10.97;9.97;;;19.00;99.90;;;;;;5033169;28;20637;-90
2021/07/25 05:53:00;;;;;;;11.77;10.57;;;18.90;99.90;;;;;;5032997;28;20627;-89
2021/07/25 05:55:31;;;;;;;10.60;9.70;;;19.00;99.90;;;;;;5032349;28;21095;-90
2021/07/25 05:58:00;;;;;;;10.10;9.40;;;19.00;99.90;;;;;;5031467;28;20622;-90
2021/07/25 06:00:29;;;;;;;12.00;10.90;;;19.00;99.90;;;;;;5032045;28;20610;-89
2021/07/25 06:03:00;;;;;;;10.03;9.13;;;18.90;99.90;;;;;;5031630;28;21215;-89
2021/07/25 06:05:30;;;;;;;9.63;8.73;;;19.10;99.90;;;;;;5034277;28;20638;-89
2021/07/25 06:08:00;;;;;;;9.50;8.70;;;19.20;99.90;;;;;;5037897;28;20634;-89
2021/07/25 06:10:30;;;;;;;9.43;8.63;;;19.20;99.90;;;;;;5030460;28;20626;-90
2021/07/25 06:13:02;;;;;;;10.50;9.70;;;19.30;99.90;;;;;;5030640;28;20638;-90
2021/07/25 06:15:32;;;;;;;11.80;10.53;;;19.40;99.90;;;;;;5028498;28;20678;-89
2021/07/25 06:18:01;;;;;;;15.03;10.67;;;19.50;99.90;;;;;;5029220;28;20626;-90
2021/07/25 06:20:29;;;;;;;12.37;11.07;;;19.60;99.90;;;;;;5019405;28;20633;-89
2021/07/25 06:22:58;;;;;;;14.40;13.10;;;19.50;99.90;;;;;;5012563;28;20686;-90
2021/07/25 06:25:28;;;;;;;14.03;12.73;;;19.50;99.90;;;;;;5026170;28;21336;-89
2021/07/25 06:27:56;;;;;;;10.60;9.57;;;19.50;99.90;;;;;;5031948;28;20705;-90
2021/07/25 06:30:26;;;;;;;9.03;8.13;;;19.60;99.90;;;;;;5031226;28;20706;-89
2021/07/25 06:32:59;;;;;;;8.23;7.53;;;19.60;99.90;;;;;;5014727;28;20623;-89
2021/07/25 06:35:27;;;;;;;6.57;5.93;;;19.60;99.90;;;;;;5012488;28;20616;-89
2021/07/25 06:37:57;;;;;;;8.70;7.20;;;19.70;99.90;;;;;;5012123;28;20626;-90
2021/07/25 06:40:25;;;;;;;6.67;6.07;;;19.80;99.90;;;;;;5012931;28;20612;-89
2021/07/25 06:42:52;;;;;;;6.63;6.00;;;20.00;99.90;;;;;;5012523;28;20639;-89
2021/07/25 06:45:19;;;;;;;6.90;6.30;;;20.00;99.90;;;;;;5011432;28;20615;-89
2021/07/25 06:47:51;;;;;;;9.27;6.43;;;20.00;99.90;;;;;;5014524;28;20631;-89
2021/07/25 06:50:19;;;;;;;7.07;5.70;;;20.00;99.90;;;;;;5021952;28;20628;-90
2021/07/25 06:52:49;;;;;;;8.70;7.20;;;20.10;99.90;;;;;;5014757;28;20728;-90
2021/07/25 06:55:17;;;;;;;9.43;8.17;;;20.20;99.90;;;;;;5018352;28;20698;-90
2021/07/25 06:57:44;;;;;;;9.07;8.17;;;20.30;99.90;;;;;;5012721;28;21236;-90
2021/07/25 07:00:12;;;;;;;10.20;9.20;;;20.40;99.90;;;;;;5016924;28;20619;-91
2021/07/25 07:02:47;;;;;;;9.20;8.30;;;20.30;99.90;;;;;;5018199;28;20667;-89
2021/07/25 07:05:16;;;;;;;8.83;8.03;;;20.20;99.90;;;;;;5016343;28;20628;-90
2021/07/25 07:07:45;;;;;;;12.23;9.23;;;20.40;99.90;;;;;;5010663;28;20612;-90
2021/07/25 07:10:13;;;;;;;12.00;9.13;;;20.40;99.90;;;;;;5011738;28;20710;-88
2021/07/25 07:12:40;;;;;;;18.80;10.57;;;20.60;99.90;;;;;;5011473;28;20628;-89
2021/07/25 07:15:08;;;;;;;9.07;8.20;;;20.50;99.90;;;;;;5020977;28;21270;-90
2021/07/25 07:17:38;;;;;;;7.13;6.53;;;20.50;99.90;;;;;;5030996;28;21065;-89
2021/07/25 07:20:06;;;;;;;9.10;8.30;;;20.50;99.90;;;;;;5032430;28;20631;-90
2021/07/25 07:22:36;;;;;;;9.63;8.63;;;20.60;99.90;;;;;;5031594;28;20611;-89
2021/07/25 07:25:06;;;;;;;8.30;7.60;;;20.40;99.90;;;;;;5032060;28;20627;-90
2021/07/25 07:27:34;;;;;;;8.77;7.20;;;20.60;99.90;;;;;;5031810;28;20616;-90
2021/07/25 07:30:02;;;;;;;8.30;7.50;;;20.60;99.90;;;;;;5031308;28;20681;-89
2021/07/25 07:32:29;;;;;;;7.20;6.57;;;20.70;99.90;;;;;;5031343;28;20980;-90
2021/07/25 07:34:56;;;;;;;7.93;7.23;;;20.70;99.90;;;;;;5031540;28;20635;-89
2021/07/25 07:37:23;;;;;;;7.80;7.20;;;20.70;99.90;;;;;;5031503;28;20751;-90
2021/07/25 07:39:52;;;;;;;7.63;6.90;;;20.70;99.90;;;;;;5031541;28;21207;-90
2021/07/25 07:42:19;;;;;;;7.67;6.97;;;20.60;99.90;;;;;;5030934;28;20617;-90
2021/07/25 07:44:47;;;;;;;8.53;7.73;;;20.60;99.90;;;;;;5030729;28;20617;-90
2021/07/25 07:47:14;;;;;;;9.53;7.37;;;20.60;99.90;;;;;;5031864;28;20647;-90
2021/07/25 07:49:44;;;;;;;8.10;7.40;;;20.60;99.90;;;;;;5031772;28;20995;-91
2021/07/25 07:52:11;;;;;;;6.90;6.30;;;20.70;99.90;;;;;;5031406;28;21014;-91
2021/07/25 07:54:41;;;;;;;8.10;7.40;;;20.70;99.90;;;;;;5031534;28;20631;-91
2021/07/25 07:57:12;;;;;;;8.40;7.60;;;20.70;99.90;;;;;;5031163;28;20743;-90
2021/07/25 07:59:39;;;;;;;7.97;7.27;;;20.60;99.90;;;;;;5031620;28;20984;-91
2021/07/25 08:02:09;;;;;;;9.73;8.40;;;20.50;99.90;;;;;;5031296;28;20624;-91
2021/07/25 08:04:43;;;;;;;8.93;7.70;;;20.50;99.90;;;;;;5031417;28;20612;-92
2021/07/25 08:07:25;;;;;;;;;;;;;;;;;;;;;
2021/07/25 08:12:45;;;;;;;7.87;7.17;;;20.80;99.90;;;;;;5021582;28;20642;-90
2021/07/25 08:15:15;;;;;;;8.77;7.97;;;21.00;99.90;;;;;;5030887;28;20719;-91
2021/07/25 08:17:46;;;;;;;8.80;7.87;;;21.30;99.90;;;;;;5031609;28;20681;-90
2021/07/25 08:20:27;;;;;;;12.70;8.30;;;21.30;99.90;;;;;;5031770;28;20624;-92
2021/07/25 08:22:54;;;;;;;8.40;7.70;;;21.10;99.90;;;;;;5031269;28;20617;-91
2021/07/25 08:25:28;;;;;;;8.40;7.70;;;21.00;99.90;;;;;;5031292;28;20730;-91
2021/07/25 08:28:04;;;;;;;8.30;7.20;;;21.00;99.90;;;;;;5031597;28;20625;-92
2021/07/25 08:30:46;;;;;;;7.50;6.80;;;21.10;99.90;;;;;;5031109;28;20670;-91
2021/07/25 08:33:16;;;;;;;7.93;7.13;;;21.10;99.90;;;;;;5031336;28;20691;-92
2021/07/25 08:35:56;;;;;;;6.50;5.90;;;21.10;99.90;;;;;;5031432;28;21087;-92
2021/07/25 08:38:24;;;;;;;7.23;6.57;;;21.20;99.90;;;;;;5031386;28;20658;-91
2021/07/25 08:41:11;;;;;;;7.10;6.50;;;21.20;99.90;;;;;;5030931;28;20736;-92
2021/07/25 08:44:20;;;;;;;6.63;6.03;;;21.10;99.90;;;;;;5031517;28;20642;-92
2021/07/25 08:47:06;;;;;;;8.33;5.77;;;21.10;99.90;;;;;;5031724;28;20989;-91
2021/07/25 08:50:07;;;;;;;6.70;6.13;;;20.90;99.90;;;;;;5031739;28;20732;-91
2021/07/25 09:10:48;;;;;;;7.70;7.00;;;20.50;99.90;;;;;;5034312;28;21042;-93
2021/07/25 09:13:43;;;;;;;10.97;8.90;;;20.50;99.90;;;;;;5033895;28;20639;-94
2021/07/25 09:16:50;;;;;;;;;;;;;;;;;;;;;
2021/07/25 09:23:27;;;;;;;8.50;7.80;;;21.20;99.90;;;;;;4988828;28;20646;-93
2021/07/25 09:26:01;;;;;;;7.80;7.20;;;21.30;99.90;;;;;;5016948;28;20994;-93
2021/07/25 09:36:21;;;;;;;7.70;6.90;;;21.20;99.90;;;;;;4900251;28;20634;-94
2021/07/25 09:38:55;;;;;;;9.90;7.33;;;21.00;99.90;;;;;;4974336;28;20625;-88
2021/07/25 09:41:26;;;;;;;8.53;7.67;;;20.90;99.90;;;;;;4984119;28;21011;-87
2021/07/25 09:44:15;;;;;;;8.30;7.50;;;20.70;99.90;;;;;;5012582;28;20646;-88
2021/07/25 09:46:44;;;;;;;8.13;7.33;;;20.60;99.90;;;;;;5024914;28;20656;-88
2021/07/25 09:49:11;;;;;;;8.57;7.77;;;20.60;99.90;;;;;;5033023;28;20763;-89
2021/07/25 09:51:38;;;;;;;8.20;7.47;;;20.50;99.90;;;;;;5022781;28;21170;-89
2021/07/25 09:54:06;;;;;;;9.00;8.10;;;20.50;99.90;;;;;;5013357;28;21301;-89
2021/07/25 09:56:35;;;;;;;7.80;7.10;;;20.50;99.90;;;;;;5031495;28;20622;-89
2021/07/25 09:59:03;;;;;;;7.83;7.10;;;20.40;99.90;;;;;;5032276;28;20622;-90
2021/07/25 10:01:41;;;;;;;7.93;7.23;;;20.40;99.90;;;;;;5013697;28;20624;-89
2021/07/25 10:04:15;;;;;;;13.20;6.50;;;20.40;99.90;;;;;;5015629;28;21013;-90
2021/07/25 10:06:46;;;;;;;7.63;6.43;;;20.30;99.90;;;;;;5051584;28;20634;-90
2021/07/25 10:09:17;;;;;;;7.00;6.33;;;20.20;99.90;;;;;;5048738;28;21049;-90
2021/07/25 10:11:49;;;;;;;8.13;7.43;;;20.20;99.90;;;;;;5032148;28;21030;-89
2021/07/25 10:14:19;;;;;;;7.47;6.77;;;20.10;99.90;;;;;;5020956;28;20979;-90
2021/07/25 10:16:57;;;;;;;7.70;7.03;;;20.10;99.90;;;;;;5012614;28;20623;-89
2021/07/25 10:19:28;;;;;;;6.87;6.17;;;20.10;99.90;;;;;;5024976;28;20606;-89
2021/07/25 10:21:57;;;;;;;7.60;6.90;;;20.00;99.90;;;;;;5032222;28;20654;-88
2021/07/25 10:24:26;;;;;;;8.77;7.60;;;19.90;99.90;;;;;;5032258;28;20705;-88
2021/07/25 10:26:56;;;;;;;8.13;7.37;;;19.80;99.90;;;;;;5030635;28;20658;-88
2021/07/25 10:29:24;;;;;;;8.30;7.37;;;19.80;99.90;;;;;;5031725;28;20627;-87
2021/07/25 10:31:51;;;;;;;7.10;6.50;;;19.80;99.90;;;;;;5031674;28;20610;-87
2021/07/25 10:34:20;;;;;;;7.20;6.50;;;19.70;99.90;;;;;;5022389;28;20735;-86
2021/07/25 10:36:48;;;;;;;7.83;7.13;;;19.70;99.90;;;;;;5031416;28;20979;-86
2021/07/25 10:39:16;;;;;;;10.23;8.87;;;19.80;99.90;;;;;;5023338;28;20677;-85
2021/07/25 10:41:46;;;;;;;7.90;7.13;;;20.00;99.90;;;;;;5011910;28;21173;-85
2021/07/25 10:44:16;;;;;;;8.10;7.30;;;20.00;99.90;;;;;;5020650;28;20681;-85
2021/07/25 10:46:43;;;;;;;12.03;6.80;;;19.90;99.90;;;;;;5032930;28;20615;-85
2021/07/25 10:49:14;;;;;;;9.87;7.03;;;19.90;99.90;;;;;;5035605;28;20619;-85
2021/07/25 10:52:01;;;;;;;9.13;8.10;;;19.80;99.90;;;;;;5034500;28;20631;-86
2021/07/25 10:54:36;;;;;;;7.80;7.10;;;20.00;99.90;;;;;;5020619;28;20637;-86
2021/07/25 10:57:04;;;;;;;7.77;7.07;;;20.00;99.90;;;;;;5033009;28;20631;-86
2021/07/25 10:59:40;;;;;;;9.90;7.00;;;20.10;99.90;;;;;;5023794;28;20628;-85
2021/07/25 11:02:08;;;;;;;8.10;7.30;;;20.10;99.90;;;;;;5013374;28;20620;-85
2021/07/25 11:05:01;;;;;;;8.90;7.83;;;20.10;99.90;;;;;;5023984;28;20730;-86
2021/07/25 11:07:39;;;;;;;10.83;8.33;;;20.00;99.90;;;;;;5044833;28;21211;-86
2021/07/25 11:10:13;;;;;;;8.60;7.83;;;19.90;99.90;;;;;;5032285;28;20622;-86
2021/07/25 11:13:19;;;;;;;11.30;8.93;;;19.90;99.90;;;;;;5029699;28;20685;-86
2021/07/25 11:15:50;;;;;;;9.57;8.70;;;20.00;99.90;;;;;;5032045;28;20638;-86
2021/07/25 11:18:34;;;;;;;10.50;9.60;;;20.10;99.90;;;;;;5025623;28;20679;-86
2021/07/25 11:21:04;;;;;;;10.77;9.87;;;20.20;99.90;;;;;;5031471;28;20649;-86
2021/07/25 11:23:40;;;;;;;10.60;9.60;;;20.40;99.90;;;;;;5018485;28;20623;-87
2021/07/25 11:26:30;;;;;;;10.07;9.07;;;20.30;99.90;;;;;;5027073;28;20975;-86
2021/07/25 11:28:58;;;;;;;13.10;9.00;;;20.40;99.90;;;;;;5031488;28;20685;-87
2021/07/25 11:31:39;;;;;;;10.10;9.17;;;20.50;99.90;;;;;;5028899;28;20634;-87
2021/07/25 11:34:08;;;;;;;9.97;8.97;;;20.50;99.90;;;;;;5031693;28;20607;-87
2021/07/25 11:36:36;;;;;;;11.30;9.37;;;20.40;99.90;;;;;;5017425;28;20727;-87
2021/07/25 11:39:04;;;;;;;9.60;8.70;;;20.40;99.90;;;;;;5011624;28;20742;-88
2021/07/25 11:41:32;;;;;;;8.80;8.00;;;20.30;99.90;;;;;;5013862;28;20656;-87
2021/07/25 11:44:01;;;;;;;9.40;8.60;;;20.20;99.90;;;;;;5012155;28;21024;-87
2021/07/25 11:46:35;;;;;;;10.03;9.13;;;20.10;99.90;;;;;;5025944;28;20711;-88
2021/07/25 11:49:17;;;;;;;11.07;10.07;;;20.20;99.90;;;;;;5019578;28;20619;-88
2021/07/25 11:51:50;;;;;;;10.00;9.10;;;20.20;99.90;;;;;;5029479;28;20742;-89
2021/07/25 11:54:22;;;;;;;10.33;9.43;;;20.40;99.90;;;;;;5011417;28;21247;-90
2021/07/25 11:57:07;;;;;;;10.97;9.87;;;20.50;99.90;;;;;;5009480;28;20619;-90
2021/07/25 11:59:36;;;;;;;10.40;9.50;;;20.60;99.90;;;;;;5011302;28;20952;-89
2021/07/25 12:02:06;;;;;;;10.13;9.33;;;20.60;99.90;;;;;;5010077;28;20628;-90
2021/07/25 12:04:34;;;;;;;11.53;10.50;;;20.60;99.90;;;;;;5014890;28;20612;-90
2021/07/25 12:07:07;;;;;;;9.70;8.80;;;20.60;99.90;;;;;;5050538;28;20654;-90
2021/07/25 12:09:36;;;;;;;10.87;9.80;;;20.50;99.90;;;;;;5050651;28;21005;-90
2021/07/25 12:12:05;;;;;;;9.80;9.00;;;20.60;99.90;;;;;;5049946;28;20735;-89
2021/07/25 12:14:33;;;;;;;10.50;9.50;;;20.50;99.90;;;;;;5050406;28;20625;-89
2021/07/25 12:17:00;;;;;;;8.43;7.70;;;20.50;99.90;;;;;;5049973;28;20625;-90
2021/07/25 12:19:35;;;;;;;7.97;7.27;;;20.20;99.90;;;;;;5050182;28;20964;-89
2021/07/25 12:22:10;;;;;;;8.17;7.47;;;20.00;99.90;;;;;;5049678;28;20728;-89
2021/07/25 12:24:39;;;;;;;7.63;6.93;;;19.90;99.90;;;;;;5047396;28;20632;-90
2021/07/25 12:27:23;;;;;;;8.07;7.27;;;19.80;99.90;;;;;;5030227;28;20619;-90
2021/07/25 12:29:50;;;;;;;8.33;7.43;;;19.70;99.90;;;;;;5029705;28;20615;-90
2021/07/25 12:32:26;;;;;;;8.10;7.30;;;19.50;99.90;;;;;;5029444;28;21182;-91
2021/07/25 12:34:56;;;;;;;7.37;6.67;;;19.50;99.90;;;;;;5030186;28;20627;-89
2021/07/25 12:37:31;;;;;;;7.53;6.90;;;19.60;99.90;;;;;;5030174;28;21204;-91
2021/07/25 12:40:09;;;;;;;9.23;8.43;;;19.70;99.90;;;;;;5030370;28;20638;-90
2021/07/25 12:42:41;;;;;;;8.40;7.63;;;19.80;99.90;;;;;;5029550;28;21288;-89
2021/07/25 12:45:37;;;;;;;10.57;9.50;;;19.80;99.90;;;;;;5030407;28;20635;-90
2021/07/25 12:48:35;;;;;;;10.47;9.50;;;20.00;99.90;;;;;;5030278;28;20619;-91
2021/07/25 12:53:57;;;;;;;9.00;7.53;;;20.20;99.90;;;;;;5027464;28;20635;-92
2021/07/25 12:56:27;;;;;;;9.63;7.40;;;20.40;99.90;;;;;;5030361;28;20623;-92
2021/07/25 12:58:57;;;;;;;7.67;6.97;;;20.50;99.90;;;;;;5030028;28;20651;-91
2021/07/25 13:04:24;;;;;;;7.90;7.10;;;21.30;99.90;;;;;;5029970;28;20613;-90
2021/07/25 13:06:52;;;;;;;8.20;7.40;;;21.60;99.90;;;;;;5030146;28;20616;-91
2021/07/25 13:09:21;;;;;;;8.57;7.90;;;21.70;99.90;;;;;;5029754;28;20625;-90
2021/07/25 13:11:50;;;;;;;8.07;7.33;;;21.80;99.90;;;;;;5029816;28;20641;-90
2021/07/25 13:14:22;;;;;;;8.60;7.80;;;22.10;99.90;;;;;;5030166;28;20618;-90
2021/07/25 13:16:49;;;;;;;7.83;7.13;;;22.30;99.90;;;;;;5029876;28;20617;-90
2021/07/25 13:19:16;;;;;;;8.87;8.07;;;22.40;99.90;;;;;;5029839;28;20657;-90
2021/07/25 13:21:44;;;;;;;9.47;8.63;;;22.40;99.90;;;;;;5024741;28;21225;-91
2021/07/25 13:24:14;;;;;;;8.43;7.63;;;22.20;99.90;;;;;;5025882;28;20653;-91
2021/07/25 13:26:41;;;;;;;8.53;7.73;;;21.90;99.90;;;;;;5011588;28;20635;-90
2021/07/25 13:29:08;;;;;;;8.83;8.03;;;21.60;99.90;;;;;;5018169;28;20621;-89
2021/07/25 13:31:35;;;;;;;8.73;7.93;;;21.50;99.90;;;;;;5026793;28;21298;-90
2021/07/25 13:34:02;;;;;;;8.47;7.67;;;21.40;99.90;;;;;;5030583;28;20981;-90
2021/07/25 13:36:32;;;;;;;8.53;7.80;;;21.70;99.90;;;;;;5029447;28;20627;-91
2021/07/25 13:39:01;;;;;;;9.27;8.37;;;21.90;99.90;;;;;;5029741;28;20716;-89
2021/07/25 13:41:34;;;;;;;9.23;8.50;;;22.00;99.90;;;;;;5021975;28;20694;-91
2021/07/25 13:44:01;;;;;;;10.17;8.73;;;22.00;99.90;;;;;;5013821;28;20629;-91
2021/07/25 13:46:41;;;;;;;9.20;7.93;;;22.00;99.90;;;;;;5023204;28;20616;-89
2021/07/25 13:49:12;;;;;;;9.03;8.10;;;21.90;99.90;;;;;;5052663;28;20688;-90
2021/07/25 13:51:39;;;;;;;9.37;8.43;;;21.90;99.90;;;;;;5048319;28;20639;-90